createdAt,value
2022-10-14T00:01:11.717Z,15.40
2022-10-14T00:03:43.038Z,15.50
2022-10-14T00:06:13.418Z,15.60
2022-10-14T00:08:42.606Z,15.60
2022-10-14T00:11:14.155Z,15.50
2022-10-14T00:13:42.428Z,15.50
2022-10-14T00:16:17.866Z,15.50
2022-10-14T00:18:47.354Z,15.50
2022-10-14T00:21:16.129Z,15.50
2022-10-14T00:23:44.487Z,15.50
2022-10-14T00:26:18.246Z,15.40
2022-10-14T00:28:46.878Z,15.50
2022-10-14T00:31:15.857Z,15.50
2022-10-14T00:33:44.133Z,15.50
2022-10-14T00:36:15.422Z,15.50
2022-10-14T00:38:45.293Z,15.50
2022-10-14T00:41:15.398Z,15.50
2022-10-14T00:43:56.470Z,15.70
2022-10-14T00:46:25.335Z,15.60
2022-10-14T00:48:54.579Z,15.60
2022-10-14T00:51:24.252Z,15.50
2022-10-14T00:53:52.811Z,15.50
2022-10-14T00:56:24.533Z,15.60
2022-10-14T00:58:53.083Z,15.50
2022-10-14T01:01:21.485Z,15.50
2022-10-14T01:03:49.836Z,15.50
2022-10-14T01:06:32.031Z,15.50
2022-10-14T01:09:05.531Z,15.60
2022-10-14T01:11:41.685Z,15.60
2022-10-14T01:14:20.353Z,15.70
2022-10-14T01:16:56.875Z,15.70
2022-10-14T01:20:00.120Z,15.90
2022-10-14T01:22:34.207Z,15.70
2022-10-14T01:25:15.436Z,15.70
2022-10-14T01:28:14.639Z,15.70
2022-10-14T01:30:46.684Z,15.70
2022-10-14T01:33:17.517Z,15.80
2022-10-14T01:35:53.094Z,15.70
2022-10-14T01:38:25.427Z,15.80
2022-10-14T01:40:59.281Z,15.80
2022-10-14T01:43:29.040Z,16.00
2022-10-14T01:46:01.722Z,15.90
2022-10-14T01:48:33.878Z,15.80
2022-10-14T01:51:05.782Z,15.90
2022-10-14T01:53:37.913Z,15.90
2022-10-14T01:56:08.509Z,15.90
2022-10-14T01:58:38.785Z,15.90
2022-10-14T02:01:10.769Z,15.80
2022-10-14T02:03:41.278Z,15.90
2022-10-14T02:06:15.637Z,15.90
2022-10-14T02:08:56.514Z,15.80
2022-10-14T02:11:25.097Z,16.00
2022-10-14T02:14:12.306Z,15.90
2022-10-14T02:16:50.419Z,15.80
2022-10-14T02:19:27.349Z,15.80
2022-10-14T02:21:59.379Z,15.90
2022-10-14T02:24:32.288Z,15.90
2022-10-14T02:27:05.401Z,15.80
2022-10-14T02:29:35.676Z,15.80
2022-10-14T02:32:08.326Z,15.90
2022-10-14T02:34:38.853Z,15.80
2022-10-14T02:37:08.697Z,15.90
2022-10-14T02:39:39.688Z,15.90
2022-10-14T02:42:07.972Z,16.00
2022-10-14T02:44:36.316Z,15.90
2022-10-14T02:47:06.025Z,16.10
2022-10-14T02:49:34.601Z,16.20
2022-10-14T02:52:02.809Z,16.20
2022-10-14T02:54:31.088Z,16.10
2022-10-14T02:56:59.821Z,16.20
2022-10-14T02:59:28.245Z,16.00
2022-10-14T03:01:56.490Z,16.00
2022-10-14T03:04:26.132Z,15.90
2022-10-14T03:06:54.948Z,15.90
2022-10-14T03:09:23.276Z,15.90
2022-10-14T03:11:51.599Z,15.90
2022-10-14T03:14:19.798Z,15.90
2022-10-14T03:16:48.242Z,15.80
2022-10-14T03:19:16.616Z,15.90
2022-10-14T03:21:46.644Z,15.70
2022-10-14T03:24:14.899Z,15.80
2022-10-14T03:26:43.257Z,16.00
2022-10-14T03:29:11.657Z,15.90
2022-10-14T03:31:39.808Z,15.90
2022-10-14T03:34:08.522Z,15.80
2022-10-14T03:36:37.228Z,15.80
2022-10-14T03:39:06.852Z,15.90
2022-10-14T03:41:35.254Z,15.80
2022-10-14T03:44:03.546Z,15.80
2022-10-14T03:46:32.268Z,15.80
2022-10-14T03:49:00.522Z,15.80
2022-10-14T03:51:28.883Z,15.90
2022-10-14T03:53:57.141Z,15.80
2022-10-14T03:56:26.854Z,15.80
2022-10-14T03:58:55.024Z,15.90
2022-10-14T04:01:23.406Z,15.80
2022-10-14T04:03:52.068Z,15.80
2022-10-14T04:06:20.228Z,15.80
2022-10-14T04:08:48.482Z,15.80
2022-10-14T04:11:17.229Z,15.70
2022-10-14T04:13:46.855Z,15.80
2022-10-14T04:16:15.498Z,15.90
2022-10-14T04:18:43.783Z,15.80
2022-10-14T04:21:13.697Z,15.80
2022-10-14T04:23:41.980Z,15.90
2022-10-14T04:26:11.083Z,15.80
2022-10-14T04:28:39.660Z,15.80
2022-10-14T04:31:09.301Z,15.80
2022-10-14T04:33:37.565Z,15.70
2022-10-14T04:36:07.179Z,16.00
2022-10-14T04:38:35.681Z,16.00
2022-10-14T04:41:04.029Z,15.90
2022-10-14T04:43:32.237Z,15.90
2022-10-14T04:46:00.563Z,16.10
2022-10-14T04:48:30.035Z,16.00
2022-10-14T04:50:58.401Z,16.30
2022-10-14T04:53:26.599Z,16.20
2022-10-14T04:55:54.946Z,16.10
2022-10-14T04:58:23.255Z,16.10
2022-10-14T05:00:51.631Z,16.20
2022-10-14T05:03:19.878Z,16.20
2022-10-14T05:05:49.382Z,16.10
2022-10-14T05:08:17.601Z,15.90
2022-10-14T05:10:45.853Z,16.00
2022-10-14T05:13:14.123Z,16.50
2022-10-14T05:15:42.653Z,16.30
2022-10-14T05:18:12.771Z,16.10
2022-10-14T05:20:41.103Z,16.10
2022-10-14T05:23:10.482Z,16.10
2022-10-14T05:25:38.606Z,16.60
2022-10-14T05:28:06.895Z,17.30
2022-10-14T05:30:35.285Z,17.80
2022-10-14T05:33:03.646Z,17.40
2022-10-14T05:35:53.992Z,17.20
2022-10-14T05:38:21.628Z,17.00
2022-10-14T05:40:56.483Z,17.00
2022-10-14T05:43:31.000Z,16.80
2022-10-14T05:46:01.059Z,16.60
2022-10-14T05:48:29.457Z,16.70
2022-10-14T05:51:01.502Z,16.80
2022-10-14T05:53:32.739Z,16.50
2022-10-14T05:56:04.288Z,16.50
2022-10-14T05:58:32.882Z,16.80
2022-10-14T06:01:01.854Z,16.60
2022-10-14T06:03:30.323Z,16.40
2022-10-14T06:05:58.690Z,16.60
2022-10-14T06:08:27.275Z,16.70
2022-10-14T06:10:57.014Z,17.00
2022-10-14T06:13:25.507Z,16.70
2022-10-14T06:15:54.119Z,16.90
2022-10-14T06:18:22.356Z,16.80
2022-10-14T06:20:53.886Z,16.70
2022-10-14T06:23:22.233Z,16.70
2022-10-14T06:25:50.985Z,17.10
2022-10-14T06:28:20.718Z,17.10
2022-10-14T06:30:51.661Z,17.10
2022-10-14T06:33:20.340Z,17.00
2022-10-14T06:35:48.797Z,16.80
2022-10-14T06:38:17.391Z,16.60
2022-10-14T06:40:45.607Z,16.70
2022-10-14T06:43:13.730Z,16.50
2022-10-14T06:45:43.281Z,16.40
2022-10-14T06:48:11.664Z,16.40
2022-10-14T06:50:40.252Z,16.30
2022-10-14T06:53:08.718Z,16.20
2022-10-14T06:55:37.030Z,16.30
2022-10-14T06:58:05.382Z,16.40
2022-10-14T07:00:33.710Z,16.20
2022-10-14T07:03:03.176Z,16.30
2022-10-14T07:05:32.255Z,16.30
2022-10-14T07:10:34.368Z,16.10
2022-10-14T07:13:02.639Z,16.20
2022-10-14T07:15:35.312Z,16.20
2022-10-14T07:18:07.416Z,16.20
2022-10-14T07:20:35.911Z,16.20
2022-10-14T07:23:04.069Z,16.20
2022-10-14T07:25:32.841Z,16.40
2022-10-14T07:28:01.249Z,16.20
2022-10-14T07:30:29.588Z,16.20
2022-10-14T07:32:57.819Z,16.30
2022-10-14T07:35:27.911Z,16.40
2022-10-14T07:37:56.775Z,16.60
2022-10-14T07:40:24.994Z,16.50
2022-10-14T07:42:53.201Z,16.60
2022-10-14T07:45:21.759Z,16.60
2022-10-14T07:47:51.703Z,16.60
2022-10-14T07:50:21.247Z,16.40
2022-10-14T07:52:50.865Z,16.40
2022-10-14T07:55:19.288Z,16.50
2022-10-14T07:57:47.565Z,16.40
2022-10-14T08:00:15.987Z,16.50
2022-10-14T08:02:44.221Z,16.70
2022-10-14T08:05:36.674Z,16.60
2022-10-14T08:08:01.982Z,16.50
2022-10-14T08:10:30.680Z,16.60
2022-10-14T08:12:59.758Z,16.90
2022-10-14T08:15:29.927Z,16.70
2022-10-14T08:17:58.355Z,16.80
2022-10-14T08:20:26.761Z,16.70
2022-10-14T08:22:56.451Z,16.90
2022-10-14T08:25:26.483Z,16.90
2022-10-14T08:27:57.477Z,16.90
2022-10-14T08:30:26.486Z,16.90
2022-10-14T08:32:55.265Z,16.70
2022-10-14T08:35:25.020Z,16.70
2022-10-14T08:37:58.091Z,17.00
2022-10-14T08:40:30.062Z,16.80
2022-10-14T08:43:03.610Z,16.80
2022-10-14T08:45:36.785Z,16.80
2022-10-14T08:48:11.847Z,16.70
2022-10-14T08:50:44.639Z,16.70
2022-10-14T08:53:15.748Z,16.60
2022-10-14T08:55:48.011Z,16.70
2022-10-14T08:58:21.693Z,16.70
2022-10-14T09:00:53.194Z,16.70
2022-10-14T09:03:23.527Z,16.60
2022-10-14T09:05:58.899Z,16.60
2022-10-14T09:08:34.008Z,16.60
2022-10-14T09:11:03.649Z,16.70
2022-10-14T09:13:36.447Z,16.90
2022-10-14T09:16:09.167Z,16.80
2022-10-14T09:18:40.360Z,16.90
2022-10-14T09:21:51.531Z,16.80
2022-10-14T09:24:22.969Z,16.70
2022-10-14T09:29:31.507Z,17.00
2022-10-14T09:32:02.515Z,16.70
2022-10-14T09:34:33.816Z,16.60
2022-10-14T09:37:25.204Z,16.60
2022-10-14T09:39:55.378Z,16.50
2022-10-14T09:42:28.777Z,16.30
2022-10-14T09:45:10.599Z,16.30
2022-10-14T09:47:46.992Z,16.20
2022-10-14T09:50:26.943Z,16.20
2022-10-14T09:53:01.543Z,16.10
2022-10-14T09:55:30.746Z,16.20
2022-10-14T09:58:17.164Z,16.30
2022-10-14T10:00:47.469Z,16.40
2022-10-14T10:03:26.626Z,16.60
2022-10-14T10:06:02.389Z,16.50
2022-10-14T10:08:30.760Z,16.60
2022-10-14T10:11:05.484Z,16.60
2022-10-14T10:13:44.510Z,16.60
2022-10-14T10:16:22.018Z,16.70
2022-10-14T10:18:50.469Z,16.50
2022-10-14T10:21:21.101Z,16.40
2022-10-14T10:23:55.830Z,16.30
2022-10-14T10:26:30.598Z,16.50
2022-10-14T10:29:02.670Z,16.60
2022-10-14T10:31:51.264Z,16.70
2022-10-14T10:34:51.908Z,16.90
2022-10-14T10:37:31.321Z,17.00
2022-10-14T10:40:27.720Z,17.00
2022-10-14T10:43:18.584Z,17.10
2022-10-14T10:46:00.346Z,16.90
2022-10-14T10:48:34.665Z,16.80
2022-10-14T10:51:07.942Z,16.90
2022-10-14T10:53:50.934Z,17.00
2022-10-14T10:56:33.696Z,17.40
2022-10-14T10:59:35.266Z,17.30
2022-10-14T11:02:47.981Z,17.00
2022-10-14T11:05:23.465Z,17.30
2022-10-14T11:08:14.680Z,18.00
2022-10-14T11:11:11.635Z,17.30
2022-10-14T11:13:47.082Z,17.10
2022-10-14T11:16:23.870Z,17.10
2022-10-14T11:19:02.881Z,17.60
2022-10-14T11:21:39.718Z,17.20
2022-10-14T11:27:00.669Z,17.60
2022-10-14T11:29:55.193Z,18.50
2022-10-14T11:32:27.495Z,17.80
2022-10-14T11:35:13.538Z,17.60
2022-10-14T11:37:53.661Z,17.60
2022-10-14T11:40:28.818Z,17.40
2022-10-14T11:43:14.972Z,18.10
2022-10-14T11:45:48.558Z,18.30
2022-10-14T11:48:25.326Z,17.50
2022-10-14T11:50:59.743Z,17.20
2022-10-14T11:53:39.685Z,17.10
2022-10-14T11:56:18.909Z,17.10
2022-10-14T11:58:49.297Z,17.10
2022-10-14T12:01:22.257Z,17.00
2022-10-14T12:03:58.681Z,17.00
2022-10-14T12:06:34.414Z,17.10
2022-10-14T12:09:05.456Z,17.30
2022-10-14T12:11:38.949Z,17.20
2022-10-14T12:14:12.425Z,17.00
2022-10-14T12:16:44.278Z,16.90
2022-10-14T12:19:14.638Z,17.00
2022-10-14T12:21:51.436Z,17.20
2022-10-14T12:24:22.754Z,17.10
2022-10-14T12:26:53.478Z,17.10
2022-10-14T12:29:23.585Z,17.30
2022-10-14T12:32:08.252Z,17.60
2022-10-14T12:34:38.543Z,17.90
2022-10-14T12:37:50.386Z,17.70
2022-10-14T12:40:29.753Z,17.50
2022-10-14T12:43:15.461Z,17.20
2022-10-14T12:46:01.545Z,17.20
2022-10-14T12:48:33.531Z,17.50
2022-10-14T12:51:13.397Z,17.40
2022-10-14T12:54:04.986Z,17.50
2022-10-14T12:56:37.345Z,17.60
2022-10-14T12:59:08.806Z,17.80
2022-10-14T13:01:37.671Z,17.60
2022-10-14T13:04:08.867Z,17.60
2022-10-14T13:06:40.159Z,17.80
2022-10-14T13:09:42.561Z,17.60
2022-10-14T13:12:43.940Z,17.60
2022-10-14T13:15:35.374Z,17.70
2022-10-14T13:18:36.533Z,17.70
2022-10-14T13:21:05.721Z,17.70
2022-10-14T13:23:40.368Z,17.50
2022-10-14T13:26:24.277Z,17.70
2022-10-14T13:29:12.497Z,17.90
2022-10-14T13:31:49.157Z,17.60
2022-10-14T13:34:37.404Z,17.40
2022-10-14T13:37:29.193Z,17.30
2022-10-14T13:39:57.890Z,17.30
2022-10-14T13:42:31.745Z,17.30
2022-10-14T13:45:06.662Z,17.40
2022-10-14T13:47:36.320Z,17.30
2022-10-14T13:50:05.682Z,17.40
2022-10-14T13:52:35.541Z,17.40
2022-10-14T13:55:15.222Z,17.40
2022-10-14T13:58:10.777Z,17.50
2022-10-14T14:00:42.748Z,17.50
2022-10-14T14:03:22.569Z,17.50
2022-10-14T14:05:51.336Z,17.50
2022-10-14T14:08:41.442Z,17.70
2022-10-14T14:11:16.822Z,17.60
2022-10-14T14:14:00.322Z,17.50
2022-10-14T14:16:33.072Z,17.40
2022-10-14T14:19:10.050Z,17.30
2022-10-14T14:21:39.037Z,17.40
2022-10-14T14:24:17.584Z,17.60
2022-10-14T14:26:46.632Z,17.50
2022-10-14T14:29:28.444Z,17.50
2022-10-14T14:32:07.234Z,17.40
2022-10-14T14:34:38.127Z,17.40
2022-10-14T14:40:00.091Z,17.50
2022-10-14T14:42:31.847Z,17.60
2022-10-14T14:45:05.287Z,17.60
2022-10-14T14:47:34.082Z,17.70
2022-10-14T14:50:29.102Z,17.80
2022-10-14T14:52:53.513Z,17.80
2022-10-14T14:55:45.246Z,17.90
2022-10-14T14:58:25.494Z,18.10
2022-10-14T15:00:55.667Z,18.10
2022-10-14T15:03:26.280Z,18.00
2022-10-14T15:05:58.132Z,18.00
2022-10-14T15:08:28.535Z,18.00
2022-10-14T15:10:58.907Z,17.90
2022-10-14T15:13:30.308Z,18.00
2022-10-14T15:16:00.247Z,18.00
2022-10-14T15:18:29.685Z,18.30
2022-10-14T15:21:15.820Z,18.10
2022-10-14T15:24:00.396Z,18.10
2022-10-14T15:26:34.510Z,18.10
2022-10-14T15:29:18.672Z,18.00
2022-10-14T15:32:04.632Z,18.00
2022-10-14T15:34:32.941Z,18.00
2022-10-14T15:37:01.467Z,18.00
2022-10-14T15:39:29.751Z,17.90
2022-10-14T15:41:58.019Z,17.90
2022-10-14T15:44:26.226Z,17.90
2022-10-14T15:47:15.266Z,17.80
2022-10-14T15:49:44.783Z,17.80
2022-10-14T15:52:15.496Z,17.70
2022-10-14T15:54:45.739Z,17.80
2022-10-14T15:57:16.486Z,17.70
2022-10-14T15:59:45.208Z,17.70
2022-10-14T16:02:19.526Z,17.60
2022-10-14T16:05:07.006Z,17.60
2022-10-14T16:07:36.349Z,17.70
2022-10-14T16:10:05.735Z,17.60
2022-10-14T16:12:34.067Z,17.60
2022-10-14T16:15:03.038Z,17.60
2022-10-14T16:17:32.936Z,17.50
2022-10-14T16:20:01.312Z,17.50
2022-10-14T16:22:29.491Z,17.40
2022-10-14T16:24:57.703Z,17.30
2022-10-14T16:27:26.337Z,17.30
2022-10-14T16:29:54.599Z,17.30
2022-10-14T16:32:22.868Z,17.30
2022-10-14T16:34:52.916Z,17.30
2022-10-14T16:37:21.427Z,17.30
2022-10-14T16:39:50.171Z,17.20
2022-10-14T16:42:19.044Z,17.20
2022-10-14T16:44:47.309Z,17.20
2022-10-14T16:47:19.568Z,17.20
2022-10-14T16:49:51.853Z,17.10
2022-10-14T16:52:22.215Z,17.10
2022-10-14T16:54:50.843Z,17.10
2022-10-14T16:57:19.451Z,17.10
2022-10-14T16:59:47.662Z,17.00
2022-10-14T17:02:17.248Z,17.00
2022-10-14T17:04:46.646Z,16.90
2022-10-14T17:07:17.462Z,16.90
2022-10-14T17:09:46.941Z,16.80
2022-10-14T17:12:15.253Z,16.80
2022-10-14T17:14:43.971Z,16.80
2022-10-14T17:17:12.485Z,16.70
2022-10-14T17:19:40.850Z,16.80
2022-10-14T17:22:08.957Z,16.80
2022-10-14T17:24:37.156Z,16.70
2022-10-14T17:27:06.824Z,16.70
2022-10-14T17:29:35.177Z,16.70
2022-10-14T17:32:03.316Z,16.60
2022-10-14T17:34:31.838Z,16.70
2022-10-14T17:37:00.581Z,16.60
2022-10-14T17:39:29.881Z,16.60
2022-10-14T17:41:58.716Z,16.60
2022-10-14T17:44:28.887Z,16.50
2022-10-14T17:46:59.281Z,16.50
2022-10-14T17:49:27.436Z,16.50
2022-10-14T17:51:55.566Z,16.50
2022-10-14T17:54:24.015Z,16.50
2022-10-14T17:56:52.343Z,16.50
2022-10-14T17:59:20.747Z,16.50
2022-10-14T18:02:02.149Z,16.50
2022-10-14T18:04:32.606Z,16.40
2022-10-14T18:07:01.243Z,16.50
2022-10-14T18:09:29.646Z,16.40
2022-10-14T18:12:13.423Z,16.40
2022-10-14T18:14:42.085Z,16.20
2022-10-14T18:17:13.081Z,15.90
2022-10-14T18:19:41.864Z,15.70
2022-10-14T18:22:11.233Z,15.60
2022-10-14T18:24:39.739Z,15.60
2022-10-14T18:27:08.666Z,15.60
2022-10-14T18:29:36.981Z,15.60
2022-10-14T18:32:05.493Z,15.70
2022-10-14T18:34:35.212Z,15.70
2022-10-14T18:37:03.428Z,15.70
2022-10-14T18:39:31.596Z,15.60
2022-10-14T18:41:59.890Z,15.60
2022-10-14T18:44:28.202Z,15.60
2022-10-14T18:46:56.864Z,15.60
2022-10-14T18:49:25.221Z,15.60
2022-10-14T18:51:55.317Z,15.60
2022-10-14T18:54:24.941Z,15.50
2022-10-14T18:56:54.810Z,15.80
2022-10-14T18:59:24.395Z,16.00
2022-10-14T19:01:53.579Z,16.10
2022-10-14T19:04:23.153Z,16.20
2022-10-14T19:06:51.876Z,16.30
2022-10-14T19:09:24.868Z,16.30
2022-10-14T19:11:53.828Z,16.30
2022-10-14T19:14:22.494Z,16.30
2022-10-14T19:16:50.823Z,16.20
2022-10-14T19:19:20.453Z,16.30
2022-10-14T19:21:54.017Z,16.30
2022-10-14T19:24:23.612Z,16.30
2022-10-14T19:26:54.274Z,16.30
2022-10-14T19:29:22.554Z,16.20
2022-10-14T19:31:51.558Z,16.30
2022-10-14T19:34:19.873Z,16.30
2022-10-14T19:36:48.512Z,16.20
2022-10-14T19:39:18.898Z,16.20
2022-10-14T19:41:48.552Z,16.20
2022-10-14T19:44:17.651Z,16.20
2022-10-14T19:46:46.650Z,16.20
2022-10-14T19:49:16.170Z,16.20
2022-10-14T19:51:44.656Z,16.20
2022-10-14T19:54:13.655Z,16.10
2022-10-14T19:56:42.076Z,16.10
2022-10-14T19:59:13.496Z,16.10
2022-10-14T20:01:41.968Z,16.20
2022-10-14T20:04:10.460Z,16.20
2022-10-14T20:06:40.093Z,16.20
2022-10-14T20:09:10.026Z,16.10
2022-10-14T20:11:38.375Z,16.20
2022-10-14T20:14:06.697Z,16.20
2022-10-14T20:16:36.430Z,16.40
2022-10-14T20:19:04.730Z,16.30
2022-10-14T20:21:33.063Z,16.30
2022-10-14T20:24:01.388Z,16.40
2022-10-14T20:26:29.791Z,16.40
2022-10-14T20:28:58.014Z,16.30
2022-10-14T20:31:26.411Z,16.30
2022-10-14T20:33:57.813Z,16.30
2022-10-14T20:36:25.995Z,16.20
2022-10-14T20:38:54.413Z,16.20
2022-10-14T20:41:27.094Z,16.20
2022-10-14T20:43:56.422Z,16.20
2022-10-14T20:46:25.299Z,16.20
2022-10-14T20:48:59.164Z,16.10
2022-10-14T20:51:27.684Z,16.20
2022-10-14T20:54:01.828Z,16.20
2022-10-14T20:56:33.514Z,16.20
2022-10-14T20:59:03.362Z,16.00
2022-10-14T21:01:31.869Z,16.10
2022-10-14T21:04:04.013Z,15.90
2022-10-14T21:06:32.664Z,16.00
2022-10-14T21:09:01.024Z,16.20
2022-10-14T21:11:29.473Z,16.20
2022-10-14T21:13:58.866Z,16.20
2022-10-14T21:16:28.853Z,16.20
2022-10-14T21:18:58.966Z,16.20
2022-10-14T21:21:33.901Z,16.20
2022-10-14T21:24:02.172Z,16.20
2022-10-14T21:26:31.258Z,16.10
2022-10-14T21:29:00.913Z,16.20
2022-10-14T21:31:29.172Z,16.20
2022-10-14T21:34:04.110Z,16.20
2022-10-14T21:36:34.969Z,16.20
2022-10-14T21:39:06.749Z,16.20
2022-10-14T21:41:35.870Z,16.20
2022-10-14T21:44:04.198Z,16.20
2022-10-14T21:46:32.650Z,16.30
2022-10-14T21:49:01.116Z,16.30
2022-10-14T21:51:30.714Z,16.30
2022-10-14T21:54:00.264Z,16.20
2022-10-14T21:56:28.890Z,16.20
2022-10-14T21:58:57.532Z,16.20
2022-10-14T22:01:27.814Z,16.20
2022-10-14T22:03:57.372Z,16.20
2022-10-14T22:06:25.775Z,16.10
2022-10-14T22:08:56.126Z,16.20
2022-10-14T22:11:28.126Z,16.20
2022-10-14T22:13:57.245Z,16.20
2022-10-14T22:16:28.861Z,16.20
2022-10-14T22:18:59.250Z,16.10
2022-10-14T22:21:29.788Z,16.10
2022-10-14T22:23:58.645Z,16.50
2022-10-14T22:26:29.994Z,16.60
2022-10-14T22:29:00.031Z,16.50
2022-10-14T22:31:29.128Z,16.50
2022-10-14T22:33:57.434Z,16.30
2022-10-14T22:36:28.897Z,16.20
2022-10-14T22:38:58.281Z,16.20
2022-10-14T22:41:32.358Z,16.40
2022-10-14T22:44:02.481Z,16.30
2022-10-14T22:46:31.968Z,16.30
2022-10-14T22:49:01.747Z,16.60
2022-10-14T22:51:31.238Z,16.50
2022-10-14T22:53:59.630Z,16.90
2022-10-14T22:56:31.405Z,16.70
2022-10-14T22:59:00.816Z,16.60
2022-10-14T23:01:29.977Z,16.60
2022-10-14T23:03:59.477Z,16.60
2022-10-14T23:06:28.983Z,16.50
2022-10-14T23:08:57.658Z,16.80
2022-10-14T23:11:26.412Z,16.80
2022-10-14T23:13:55.805Z,16.60
2022-10-14T23:16:25.521Z,16.70
2022-10-14T23:18:54.610Z,16.70
2022-10-14T23:21:24.524Z,16.80
2022-10-14T23:23:53.643Z,16.60
2022-10-14T23:26:23.471Z,16.50
2022-10-14T23:28:53.038Z,16.40
2022-10-14T23:31:24.334Z,16.30
2022-10-14T23:33:53.381Z,16.30
2022-10-14T23:36:23.008Z,16.20
2022-10-14T23:38:52.488Z,16.20
2022-10-14T23:41:23.708Z,16.20
2022-10-14T23:43:52.921Z,16.20
2022-10-14T23:46:23.098Z,16.20
2022-10-14T23:49:01.181Z,16.20
2022-10-14T23:51:40.431Z,16.20
2022-10-14T23:54:08.932Z,16.10
2022-10-14T23:56:37.158Z,16.10
2022-10-14T23:59:05.582Z,16.10
